Time;durP1;ratioP1;P1;durP2;ratioP2;P2;SDS_P1;SDS_P2;PMS_P1;PMS_P2;Temp;Humidity;BMP_temperature;BMP_pressure;BME280_temperature;BME280_humidity;BME280_pressure;Samples;Min_cycle;Max_cycle;Signal;HPM_P1;HPM_P2
2023/05/05 00:01:20;;;;;;;0.00;0.00;;;;;;;11.99;100.00;100086.19;6235142;23;20062;-77
2023/05/05 00:03:46;;;;;;;0.00;0.00;;;;;;;11.91;100.00;100075.78;6240634;23;20094;-76
2023/05/05 00:06:12;;;;;;;0.00;0.00;;;;;;;11.92;100.00;100085.63;6232043;23;20016;-77
2023/05/05 00:08:37;;;;;;;0.00;0.00;;;;;;;11.82;100.00;100077.47;6240481;23;20416;-76
2023/05/05 00:11:02;;;;;;;0.00;0.00;;;;;;;11.76;100.00;100076.69;6183983;23;20004;-77
2023/05/05 00:13:28;;;;;;;0.00;0.00;;;;;;;11.79;100.00;100086.28;6238683;23;20016;-76
2023/05/05 00:15:54;;;;;;;0.00;0.00;;;;;;;11.77;100.00;100080.25;6239083;23;20799;-76
2023/05/05 00:18:20;;;;;;;0.00;0.00;;;;;;;11.81;100.00;100086.78;6234816;22;20450;-76
2023/05/05 00:20:46;;;;;;;0.00;0.00;;;;;;;11.84;100.00;100086.22;6242543;22;20000;-76
2023/05/05 00:23:12;;;;;;;0.00;0.00;;;;;;;11.82;100.00;100077.47;6233637;23;20015;-76
2023/05/05 00:25:37;;;;;;;0.00;0.00;;;;;;;11.77;100.00;100066.53;6185689;23;20012;-76
2023/05/05 00:28:03;;;;;;;0.00;0.00;;;;;;;11.80;100.00;100076.97;6210334;23;20008;-76
2023/05/05 00:30:29;;;;;;;0.00;0.00;;;;;;;11.82;100.00;100074.75;6237783;22;20442;-74
2023/05/05 00:32:55;;;;;;;0.00;0.00;;;;;;;11.80;100.00;100069.56;6239711;23;20078;-75
2023/05/05 00:35:20;;;;;;;0.00;0.00;;;;;;;11.81;100.00;100064.88;6232680;23;20016;-75
2023/05/05 00:37:47;;;;;;;0.00;0.00;;;;;;;11.85;100.00;100065.97;6209256;23;20034;-75
2023/05/05 00:40:13;;;;;;;0.00;0.00;;;;;;;11.88;100.00;100065.38;6211010;23;20008;-75
2023/05/05 00:42:47;;;;;;;0.03;0.03;;;;;;;11.87;100.00;100064.56;6239425;22;20008;-76
2023/05/05 00:45:14;;;;;;;0.00;0.00;;;;;;;11.83;100.00;100059.94;6207469;23;20008;-77
2023/05/05 00:47:53;;;;;;;0.00;0.00;;;;;;;11.78;100.00;100059.97;6240580;23;20008;-76
2023/05/05 00:50:22;;;;;;;0.00;0.00;;;;;;;11.79;100.00;100067.09;6235580;22;20028;-76
2023/05/05 00:52:48;;;;;;;0.00;0.00;;;;;;;11.76;100.00;100068.47;6238556;22;20004;-77
2023/05/05 00:55:14;;;;;;;0.00;0.00;;;;;;;11.75;100.00;100068.75;6237592;22;20110;-76
2023/05/05 00:57:39;;;;;;;0.00;0.00;;;;;;;11.67;100.00;100062.75;6237126;23;20472;-76
2023/05/05 01:00:08;;;;;;;0.00;0.00;;;;;;;11.68;100.00;100055.34;6211601;23;20387;-77
2023/05/05 01:02:34;;;;;;;0.00;0.00;;;;;;;11.72;100.00;100061.09;6234039;23;20004;-76
2023/05/05 01:05:00;;;;;;;0.00;0.00;;;;;;;11.68;100.00;100066.31;6211503;23;20015;-77
2023/05/05 01:08:24;;;;;;;0.00;0.00;;;;;;;11.62;100.00;100056.50;6248139;23;20047;-74
2023/05/05 01:10:54;;;;;;;0.00;0.00;;;;;;;11.56;100.00;100066.66;6100137;23;20013;-76
2023/05/05 01:14:12;;;;;;;0.00;0.00;;;;;;;11.48;100.00;100050.81;6219350;23;19996;-77
2023/05/05 01:16:42;;;;;;;0.00;0.00;;;;;;;11.45;100.00;100056.88;6173561;22;20015;-76
2023/05/05 01:19:37;;;;;;;0.00;0.00;;;;;;;11.46;100.00;100053.00;6241273;22;20091;-76
2023/05/05 01:22:07;;;;;;;0.00;0.00;;;;;;;11.46;100.00;100053.00;6237864;23;20012;-75
2023/05/05 01:24:49;;;;;;;0.00;0.00;;;;;;;11.52;100.00;100055.47;6234166;23;20047;-77
2023/05/05 01:27:54;;;;;;;0.00;0.00;;;;;;;11.59;100.00;100057.06;6239318;23;20000;-77
2023/05/05 01:30:39;;;;;;;;;;;;;;;11.60;100.00;100061.44;6236346;22;20095;-76
2023/05/05 01:33:10;;;;;;;;;;;;;;;11.54;100.00;100060.66;6172774;23;19903;-76
2023/05/05 01:35:40;;;;;;;0.00;0.00;;;;;;;11.48;100.00;100048.09;6236325;23;19907;-77
2023/05/05 01:38:17;;;;;;;0.00;0.00;;;;;;;11.49;100.00;100052.44;6232891;23;20004;-78
2023/05/05 01:40:47;;;;;;;0.00;0.00;;;;;;;11.46;100.00;100050.28;6235062;23;20010;-76
2023/05/05 01:43:18;;;;;;;0.00;0.00;;;;;;;11.50;100.00;100045.88;6234534;22;20079;-77
2023/05/05 01:45:45;;;;;;;0.00;0.00;;;;;;;11.58;100.00;100048.03;6233102;23;20050;-75
2023/05/05 01:48:13;;;;;;;0.00;0.00;;;;;;;11.61;100.00;100047.47;6237723;22;20004;-74
2023/05/05 01:50:42;;;;;;;0.00;0.00;;;;;;;11.63;100.00;100039.78;6231611;22;20008;-75
2023/05/05 01:53:09;;;;;;;0.00;0.00;;;;;;;11.67;100.00;100032.63;6235301;23;20086;-76
2023/05/05 01:55:36;;;;;;;0.00;0.00;;;;;;;11.63;100.00;100028.81;6207644;23;20008;-75
2023/05/05 01:58:03;;;;;;;0.00;0.00;;;;;;;11.63;100.00;100026.09;6235393;23;20011;-75
2023/05/05 02:00:30;;;;;;;0.00;0.00;;;;;;;11.64;100.00;100019.50;6236963;22;20693;-75
2023/05/05 02:02:58;;;;;;;0.00;0.00;;;;;;;11.67;100.00;100020.88;6236992;22;20426;-76
2023/05/05 02:05:25;;;;;;;0.00;0.00;;;;;;;11.72;100.00;100025.50;6213338;23;20011;-76
2023/05/05 02:07:56;;;;;;;0.00;0.00;;;;;;;11.76;100.00;100035.59;6231335;22;20007;-75
2023/05/05 02:10:22;;;;;;;0.00;0.00;;;;;;;11.70;100.00;100040.28;6239621;23;20013;-75
2023/05/05 02:12:49;;;;;;;0.00;0.00;;;;;;;11.68;100.00;100044.41;6207418;23;20459;-74
2023/05/05 02:15:16;;;;;;;0.00;0.00;;;;;;;11.65;100.00;100029.38;6237531;23;20004;-75
2023/05/05 02:17:42;;;;;;;0.00;0.00;;;;;;;11.68;100.00;100034.28;6237403;22;20489;-75
2023/05/05 02:20:10;;;;;;;0.00;0.00;;;;;;;11.65;100.00;100034.84;6210323;23;20016;-75
2023/05/05 02:22:36;;;;;;;0.00;0.00;;;;;;;11.60;100.00;100037.59;6241035;22;20004;-77
2023/05/05 02:25:02;;;;;;;0.00;0.00;;;;;;;11.53;100.00;100031.63;6231468;23;20316;-77
2023/05/05 02:27:32;;;;;;;0.00;0.00;;;;;;;11.42;100.00;100040.97;6238890;23;20015;-78
2023/05/05 02:30:00;;;;;;;0.00;0.00;;;;;;;11.34;100.00;100032.25;6230971;22;20070;-77
2023/05/05 02:32:39;;;;;;;0.00;0.00;;;;;;;11.30;100.00;100028.47;6234698;23;20000;-77
2023/05/05 02:35:14;;;;;;;0.00;0.00;;;;;;;11.26;100.00;100032.84;6235624;23;20976;-77
2023/05/05 02:37:58;;;;;;;0.00;0.00;;;;;;;11.25;100.00;100039.41;6242829;22;20000;-77
2023/05/05 02:40:26;;;;;;;0.00;0.00;;;;;;;11.27;100.00;100037.22;6232018;23;20008;-76
2023/05/05 02:42:53;;;;;;;0.00;0.00;;;;;;;11.28;100.00;100047.06;6241314;22;20000;-75
2023/05/05 02:45:21;;;;;;;0.00;0.00;;;;;;;11.24;100.00;100035.03;6210307;23;20078;-78
2023/05/05 02:47:47;;;;;;;0.00;0.00;;;;;;;11.18;100.00;100039.72;6237725;23;20007;-77
2023/05/05 02:50:14;;;;;;;0.00;0.00;;;;;;;11.27;100.00;100042.72;6234392;23;20004;-77
2023/05/05 02:52:40;;;;;;;0.00;0.00;;;;;;;11.21;100.00;100046.53;6240787;22;20091;-77
2023/05/05 02:55:08;;;;;;;0.00;0.00;;;;;;;11.16;100.00;100041.09;6211084;23;20004;-77
2023/05/05 02:57:37;;;;;;;0.00;0.00;;;;;;;11.19;100.00;100043.28;6235794;23;20000;-77
2023/05/05 03:00:21;;;;;;;0.00;0.00;;;;;;;11.13;100.00;100049.88;6237015;23;20429;-77
2023/05/05 03:02:57;;;;;;;0.00;0.00;;;;;;;11.15;100.00;100047.66;6235719;23;20004;-77
2023/05/05 03:05:36;;;;;;;0.00;0.00;;;;;;;11.07;100.00;100040.03;6236031;23;20698;-77
2023/05/05 03:08:08;;;;;;;0.00;0.00;;;;;;;11.10;100.00;100042.22;6234314;23;20356;-76
2023/05/05 03:10:42;;;;;;;0.00;0.00;;;;;;;11.08;100.00;100031.56;6238554;23;19996;-77
2023/05/05 03:13:09;;;;;;;;;;;;;;;11.15;100.00;100037.53;6234055;23;20086;-78
2023/05/05 03:15:43;;;;;;;0.00;0.00;;;;;;;11.14;100.00;100041.38;6238246;23;19953;-76
2023/05/05 03:18:10;;;;;;;;;;;;;;;11.15;100.00;100043.00;6233822;23;19996;-77
2023/05/05 03:20:38;;;;;;;0.00;0.00;;;;;;;11.10;100.00;100034.81;6236252;23;19910;-77
2023/05/05 03:23:04;;;;;;;0.00;0.00;;;;;;;11.04;100.00;100018.69;6231879;23;20038;-77
2023/05/05 03:25:42;;;;;;;0.00;0.00;;;;;;;11.06;100.00;100024.72;6234902;23;20012;-78
2023/05/05 03:28:10;;;;;;;0.00;0.00;;;;;;;11.11;100.00;100041.94;6231965;23;20362;-77
2023/05/05 03:30:36;;;;;;;0.00;0.00;;;;;;;11.04;100.00;100037.84;6239069;23;20031;-79
2023/05/05 03:33:01;;;;;;;0.00;0.00;;;;;;;11.00;100.00;100035.66;6234487;23;20004;-77
2023/05/05 03:35:27;;;;;;;0.00;0.00;;;;;;;10.99;100.00;100028.56;6212851;23;20007;-76
2023/05/05 03:37:54;;;;;;;0.00;0.00;;;;;;;11.00;100.00;100032.94;6245954;23;20004;-77
2023/05/05 03:40:19;;;;;;;0.00;0.00;;;;;;;11.00;100.00;100032.94;6212742;23;20452;-77
2023/05/05 03:42:45;;;;;;;0.00;0.00;;;;;;;11.05;100.00;100031.28;6238976;23;20079;-76
2023/05/05 03:45:11;;;;;;;0.00;0.00;;;;;;;11.11;100.00;100035.63;6182031;23;20090;-76
2023/05/05 03:47:37;;;;;;;0.00;0.00;;;;;;;11.11;100.00;100020.06;6215009;23;20008;-76
2023/05/05 03:50:02;;;;;;;0.00;0.00;;;;;;;11.14;100.00;100027.69;6211253;23;20011;-76
2023/05/05 03:52:28;;;;;;;0.00;0.00;;;;;;;11.24;100.00;100035.03;6211421;23;20058;-75
2023/05/05 03:54:53;;;;;;;0.00;0.00;;;;;;;11.27;100.00;100023.53;6217775;23;20044;-76
2023/05/05 03:57:18;;;;;;;0.00;0.00;;;;;;;11.25;100.00;100020.25;6211708;23;20650;-76
2023/05/05 03:59:44;;;;;;;0.00;0.00;;;;;;;11.20;100.00;100012.09;6209276;23;20004;-76
2023/05/05 04:02:10;;;;;;;0.00;0.00;;;;;;;11.32;100.00;100020.78;6213678;23;20043;-76
2023/05/05 04:04:35;;;;;;;0.00;0.00;;;;;;;11.33;100.00;100032.53;6210158;23;20012;-76
2023/05/05 04:07:00;;;;;;;0.00;0.00;;;;;;;11.30;100.00;100017.50;6215520;23;20691;-74
2023/05/05 04:09:26;;;;;;;0.00;0.00;;;;;;;11.33;100.00;100019.69;6184427;23;20015;-75
2023/05/05 04:11:51;;;;;;;0.00;0.00;;;;;;;11.37;100.00;100021.84;6189630;23;20038;-75
2023/05/05 04:14:17;;;;;;;0.00;0.00;;;;;;;11.37;100.00;100027.31;6212647;23;20004;-74
2023/05/05 04:16:42;;;;;;;0.00;0.00;;;;;;;11.35;100.00;100020.22;6190250;23;20091;-75
2023/05/05 04:19:08;;;;;;;0.00;0.00;;;;;;;11.32;100.00;100028.19;6216945;23;20075;-74
2023/05/05 04:21:34;;;;;;;0.00;0.00;;;;;;;11.30;100.00;100028.47;6189036;23;20020;-76
2023/05/05 04:23:59;;;;;;;0.00;0.00;;;;;;;11.31;100.00;100027.34;6241247;23;20154;-76
2023/05/05 04:26:26;;;;;;;0.00;0.00;;;;;;;11.29;100.00;100020.53;6213714;23;20011;-76
2023/05/05 04:28:51;;;;;;;0.00;0.00;;;;;;;11.31;100.00;100029.28;6240987;23;20004;-76
2023/05/05 04:31:17;;;;;;;0.00;0.00;;;;;;;11.25;100.00;100019.44;6237879;23;20069;-75
2023/05/05 04:33:42;;;;;;;0.00;0.00;;;;;;;11.24;100.00;100029.56;6240737;23;20011;-76
2023/05/05 04:36:08;;;;;;;0.00;0.00;;;;;;;11.15;100.00;100010.16;6240332;23;20066;-75
2023/05/05 04:38:33;;;;;;;0.00;0.00;;;;;;;11.11;100.00;100011.84;6234016;22;20086;-76
2023/05/05 04:40:59;;;;;;;0.00;0.00;;;;;;;11.05;100.00;100020.34;6239976;23;20004;-76
2023/05/05 04:43:29;;;;;;;0.00;0.00;;;;;;;11.07;100.00;100034.53;6235594;22;20369;-77
2023/05/05 04:45:55;;;;;;;0.00;0.00;;;;;;;11.03;100.00;100028.81;6238107;23;20082;-77
2023/05/05 04:48:20;;;;;;;0.00;0.00;;;;;;;11.05;100.00;100031.28;6236690;22;20035;-76
2023/05/05 04:50:46;;;;;;;0.00;0.00;;;;;;;11.07;100.00;100034.53;6186038;23;20062;-75
2023/05/05 04:53:11;;;;;;;0.00;0.00;;;;;;;11.03;100.00;100036.22;6239134;23;20083;-76
2023/05/05 04:55:40;;;;;;;0.00;0.00;;;;;;;11.02;100.00;100032.66;6207844;23;20012;-75
2023/05/05 04:58:05;;;;;;;0.00;0.00;;;;;;;10.96;100.00;100034.56;6239365;23;20049;-76
2023/05/05 05:00:31;;;;;;;0.00;0.00;;;;;;;11.00;100.00;100035.66;6211276;23;20095;-75
2023/05/05 05:02:57;;;;;;;0.00;0.00;;;;;;;10.95;100.00;100022.03;6238463;23;20015;-76
2023/05/05 05:05:25;;;;;;;0.00;0.00;;;;;;;11.06;100.00;100033.75;6234310;23;20423;-76
2023/05/05 05:07:50;;;;;;;0.00;0.00;;;;;;;11.06;100.00;100032.94;6237762;23;20367;-76
2023/05/05 05:10:17;;;;;;;0.00;0.00;;;;;;;11.13;100.00;100038.94;6213780;23;20098;-76
2023/05/05 05:12:42;;;;;;;0.00;0.00;;;;;;;11.21;100.00;100043.81;6233877;23;20012;-77
2023/05/05 05:15:14;;;;;;;0.00;0.00;;;;;;;11.19;100.00;100043.28;6215039;23;20008;-76
2023/05/05 05:17:39;;;;;;;0.00;0.00;;;;;;;11.16;100.00;100044.66;6234381;23;20015;-76
2023/05/05 05:20:06;;;;;;;0.00;0.00;;;;;;;11.24;100.00;100061.59;6238865;23;20031;-74
2023/05/05 05:22:31;;;;;;;0.00;0.00;;;;;;;11.28;100.00;100068.97;6211086;23;20012;-75
2023/05/05 05:24:57;;;;;;;0.00;0.00;;;;;;;11.33;100.00;100068.13;6213713;23;20099;-75
2023/05/05 05:27:22;;;;;;;0.10;0.10;;;;;;;11.32;100.00;100071.97;6238019;23;20087;-76
2023/05/05 05:29:47;;;;;;;0.00;0.00;;;;;;;11.29;100.00;100064.31;6212358;23;20024;-78
2023/05/05 05:32:13;;;;;;;0.00;0.00;;;;;;;11.39;100.00;100079.88;6239911;23;20327;-78
2023/05/05 05:34:38;;;;;;;0.00;0.00;;;;;;;11.35;100.00;100072.22;6237936;22;20410;-77
2023/05/05 05:37:04;;;;;;;0.00;0.00;;;;;;;11.34;100.00;100070.56;6238176;23;20004;-79
2023/05/05 05:39:29;;;;;;;0.00;0.00;;;;;;;11.35;100.00;100074.97;6212233;23;20131;-77
2023/05/05 05:41:55;;;;;;;0.00;0.00;;;;;;;11.31;100.00;100082.09;6212186;23;20404;-77
2023/05/05 05:44:20;;;;;;;0.00;0.00;;;;;;;11.30;100.00;100085.94;6190120;23;20012;-77
2023/05/05 05:46:45;;;;;;;0.00;0.00;;;;;;;11.27;100.00;100091.97;6186821;23;20059;-78
2023/05/05 05:49:18;;;;;;;0.00;0.00;;;;;;;11.11;100.00;100083.00;6239875;23;20367;-77
2023/05/05 05:51:44;;;;;;;0.00;0.00;;;;;;;11.07;100.00;100089.28;6235418;23;20000;-77
2023/05/05 05:54:09;;;;;;;0.00;0.00;;;;;;;11.18;100.00;100097.19;6239404;23;20015;-77
2023/05/05 05:56:35;;;;;;;0.00;0.00;;;;;;;11.26;100.00;100104.00;6194791;23;20035;-76
2023/05/05 05:59:03;;;;;;;0.00;0.00;;;;;;;11.21;100.00;100092.25;6247350;23;19996;-77
2023/05/05 06:01:28;;;;;;;0.00;0.00;;;;;;;11.23;100.00;100099.09;6246815;23;20004;-77
2023/05/05 06:03:54;;;;;;;0.00;0.00;;;;;;;11.30;100.00;100107.00;6235874;22;20000;-76
2023/05/05 06:06:20;;;;;;;0.00;0.00;;;;;;;11.31;100.00;100123.16;6236020;23;20058;-77
2023/05/05 06:08:45;;;;;;;0.00;0.00;;;;;;;11.33;100.00;100111.91;6184760;23;20015;-77
2023/05/05 06:11:10;;;;;;;0.00;0.00;;;;;;;11.40;100.00;100109.69;6240871;23;20055;-77
2023/05/05 06:13:36;;;;;;;0.00;0.00;;;;;;;11.42;100.00;100110.25;6215868;23;20435;-78
2023/05/05 06:16:04;;;;;;;0.00;0.00;;;;;;;11.45;100.00;100103.41;6235270;23;20688;-76
2023/05/05 06:18:29;;;;;;;0.00;0.00;;;;;;;11.47;100.00;100101.19;6191283;23;20087;-76
2023/05/05 06:20:55;;;;;;;0.00;0.00;;;;;;;11.60;100.00;100108.00;6186543;23;20024;-77
2023/05/05 06:23:20;;;;;;;0.00;0.00;;;;;;;11.58;100.00;100096.50;6215417;23;20008;-77
2023/05/05 06:25:46;;;;;;;0.00;0.00;;;;;;;11.68;100.00;100100.03;6211303;23;20082;-77
2023/05/05 06:28:15;;;;;;;0.00;0.00;;;;;;;11.82;100.00;100110.34;6216001;23;20011;-77
2023/05/05 06:30:40;;;;;;;0.00;0.00;;;;;;;11.89;100.00;100105.38;6212377;23;20016;-76
2023/05/05 06:33:06;;;;;;;0.00;0.00;;;;;;;11.87;100.00;100111.16;6238956;22;20008;-76
2023/05/05 06:35:31;;;;;;;0.00;0.00;;;;;;;11.86;100.00;100111.44;6216663;23;20004;-77
2023/05/05 06:38:02;;;;;;;0.00;0.00;;;;;;;11.78;100.00;100088.16;6237006;23;20419;-77
2023/05/05 06:40:27;;;;;;;0.00;0.00;;;;;;;11.88;100.00;100111.97;6243118;23;20000;-77
2023/05/05 06:42:52;;;;;;;0.00;0.00;;;;;;;11.91;100.00;100122.34;6240992;23;20008;-76
2023/05/05 06:45:18;;;;;;;0.00;0.00;;;;;;;11.91;100.00;100119.63;6191483;23;20015;-78
2023/05/05 06:47:46;;;;;;;0.00;0.00;;;;;;;11.88;100.00;100098.25;6214877;23;20313;-80
2023/05/05 06:50:12;;;;;;;0.00;0.00;;;;;;;12.07;100.00;100116.81;6238774;23;20010;-78
2023/05/05 06:52:45;;;;;;;0.00;0.00;;;;;;;12.21;100.00;100118.66;6240192;23;20035;-78
2023/05/05 06:55:10;;;;;;;0.00;0.00;;;;;;;12.51;100.00;100111.31;6240423;22;20057;-77
2023/05/05 06:57:36;;;;;;;0.00;0.00;;;;;;;12.86;100.00;100125.00;6244186;23;20039;-79
2023/05/05 07:00:08;;;;;;;0.00;0.00;;;;;;;13.01;100.00;100102.91;6243795;23;20012;-78
2023/05/05 07:02:46;;;;;;;;;;;;;;;;;;;;;
2023/05/05 07:05:15;;;;;;;0.00;0.00;;;;;;;13.12;100.00;100105.53;6242942;23;20068;-78
2023/05/05 07:07:54;;;;;;;0.00;0.00;;;;;;;13.23;100.00;100126.28;6241970;23;20008;-75
2023/05/05 07:10:21;;;;;;;0.00;0.00;;;;;;;13.43;100.00;100145.31;6246098;23;20011;-76
2023/05/05 07:13:09;;;;;;;0.00;0.00;;;;;;;13.44;100.00;100119.47;6219614;23;20095;-76
2023/05/05 07:15:53;;;;;;;0.00;0.00;;;;;;;13.67;98.68;100135.41;6242832;22;20032;-75
2023/05/05 07:18:19;;;;;;;0.00;0.00;;;;;;;13.71;97.79;100120.81;6242723;23;20438;-75
2023/05/05 07:20:45;;;;;;;0.00;0.00;;;;;;;13.78;95.91;100147.91;6239307;23;20004;-74
2023/05/05 07:23:10;;;;;;;0.00;0.00;;;;;;;13.80;95.46;100145.72;6241737;23;20004;-75
2023/05/05 07:25:36;;;;;;;0.00;0.00;;;;;;;13.73;94.36;100148.81;6215982;23;20041;-75
2023/05/05 07:28:02;;;;;;;0.00;0.00;;;;;;;13.64;93.97;100141.50;6239334;23;20091;-75
2023/05/05 07:30:28;;;;;;;0.00;0.00;;;;;;;13.57;94.32;100147.34;6242877;23;20020;-75
2023/05/05 07:32:53;;;;;;;0.00;0.00;;;;;;;13.75;94.14;100151.25;6216129;23;20342;-75
2023/05/05 07:35:22;;;;;;;0.00;0.00;;;;;;;13.93;93.11;100161.47;6242931;23;20007;-75
2023/05/05 07:37:50;;;;;;;0.00;0.00;;;;;;;13.98;91.27;100138.59;6240809;23;19996;-76
2023/05/05 07:40:18;;;;;;;0.00;0.00;;;;;;;14.19;89.93;100141.06;6243527;23;20426;-75
2023/05/05 07:42:46;;;;;;;0.00;0.00;;;;;;;14.29;87.73;100136.22;6243148;23;20008;-77
2023/05/05 07:45:11;;;;;;;0.00;0.00;;;;;;;14.40;86.57;100147.88;6242001;23;20004;-76
2023/05/05 07:47:44;;;;;;;0.00;0.00;;;;;;;14.53;86.51;100159.25;6218072;23;20019;-77
2023/05/05 07:50:10;;;;;;;0.00;0.00;;;;;;;14.45;85.22;100160.75;6238641;23;20012;-74
2023/05/05 07:52:40;;;;;;;0.00;0.00;;;;;;;14.62;85.41;100155.56;6246455;23;20010;-74
2023/05/05 07:55:06;;;;;;;0.00;0.00;;;;;;;14.86;83.00;100154.59;6252523;22;20008;-74
2023/05/05 07:57:34;;;;;;;0.00;0.00;;;;;;;15.16;82.99;100163.47;6253639;23;20116;-74
2023/05/05 08:00:00;;;;;;;0.00;0.00;;;;;;;15.65;81.59;100167.50;6251292;23;20007;-77
2023/05/05 08:02:25;;;;;;;0.00;0.00;;;;;;;15.94;78.18;100162.78;6244017;23;20029;-75
2023/05/05 08:04:51;;;;;;;0.00;0.00;;;;;;;16.19;78.15;100158.66;6218119;23;20031;-76
2023/05/05 08:07:16;;;;;;;0.00;0.00;;;;;;;16.48;75.78;100177.56;6239756;23;20008;-77
2023/05/05 08:09:41;;;;;;;0.00;0.00;;;;;;;16.21;74.52;100165.50;6238165;23;20418;-76
2023/05/05 08:12:07;;;;;;;0.00;0.00;;;;;;;16.19;75.77;100167.78;6217082;23;20439;-76
2023/05/05 08:14:35;;;;;;;0.00;0.00;;;;;;;15.97;75.88;100173.22;6210935;23;20012;-75
2023/05/05 08:17:02;;;;;;;0.00;0.00;;;;;;;15.40;77.29;100162.47;6191841;23;20008;-75
2023/05/05 08:19:28;;;;;;;0.00;0.00;;;;;;;15.00;79.61;100160.97;6213322;23;20008;-77
2023/05/05 08:21:56;;;;;;;0.00;0.00;;;;;;;15.00;80.83;100160.97;6244412;23;20082;-77
2023/05/05 08:24:21;;;;;;;0.00;0.00;;;;;;;15.03;80.85;100165.06;6241398;23;20008;-76
2023/05/05 08:26:47;;;;;;;0.00;0.00;;;;;;;15.11;80.96;100172.63;6241048;23;20011;-75
2023/05/05 08:29:12;;;;;;;0.00;0.00;;;;;;;15.00;81.97;100169.22;6213572;22;20008;-76
2023/05/05 08:31:37;;;;;;;0.00;0.00;;;;;;;15.17;82.11;100176.94;6212662;23;20062;-75
2023/05/05 08:34:06;;;;;;;0.00;0.00;;;;;;;15.42;81.75;100172.06;6239807;23;20058;-77
2023/05/05 08:36:32;;;;;;;0.00;0.00;;;;;;;15.44;80.30;100169.81;6210047;23;20443;-78
2023/05/05 08:38:59;;;;;;;0.00;0.00;;;;;;;15.49;79.92;100169.72;6215344;23;20031;-75
2023/05/05 08:41:25;;;;;;;0.00;0.00;;;;;;;15.66;79.85;100173.81;6240499;22;20616;-76
2023/05/05 08:43:52;;;;;;;0.00;0.00;;;;;;;15.85;79.69;100184.75;6241461;23;20014;-76
2023/05/05 08:46:34;;;;;;;0.00;0.00;;;;;;;15.67;79.03;100167.19;6234992;23;20003;-76
2023/05/05 08:49:02;;;;;;;0.00;0.00;;;;;;;15.81;79.40;100192.00;6214933;23;20004;-76
2023/05/05 08:51:36;;;;;;;0.00;0.00;;;;;;;15.56;79.56;100183.09;6235165;22;20095;-77
2023/05/05 08:54:13;;;;;;;0.00;0.00;;;;;;;15.48;81.10;100181.88;6238789;22;20447;-78
2023/05/05 08:56:45;;;;;;;0.00;0.00;;;;;;;15.81;80.78;100195.59;6236851;23;20008;-76
2023/05/05 08:59:12;;;;;;;0.00;0.00;;;;;;;16.19;79.73;100186.25;6234342;23;20000;-77
2023/05/05 09:01:43;;;;;;;0.00;0.00;;;;;;;16.28;77.99;100186.31;6240107;23;20429;-78
2023/05/05 09:04:11;;;;;;;0.00;0.00;;;;;;;16.51;77.89;100185.22;6232820;23;20053;-77
2023/05/05 09:06:37;;;;;;;0.00;0.00;;;;;;;16.54;77.48;100167.22;6211222;23;20545;-78
2023/05/05 09:09:02;;;;;;;0.00;0.00;;;;;;;17.41;75.88;100189.13;6207287;23;20004;-78
2023/05/05 09:11:28;;;;;;;0.00;0.00;;;;;;;18.07;72.89;100182.88;6213421;23;20077;-77
2023/05/05 09:13:54;;;;;;;0.00;0.00;;;;;;;18.44;70.14;100191.69;6231437;23;20028;-77
2023/05/05 09:16:21;;;;;;;0.00;0.00;;;;;;;18.44;69.07;100186.16;6235075;23;20118;-76
2023/05/05 09:18:54;;;;;;;0.00;0.00;;;;;;;18.44;67.28;100195.28;6211743;23;20008;-77
2023/05/05 09:21:20;;;;;;;0.00;0.00;;;;;;;18.16;68.64;100211.34;6236470;23;20038;-76
2023/05/05 09:24:17;;;;;;;0.00;0.00;;;;;;;17.86;69.26;100200.03;6239332;22;20423;-74
2023/05/05 09:26:46;;;;;;;0.00;0.00;;;;;;;17.18;71.10;100202.97;6236230;22;20000;-74
2023/05/05 09:29:21;;;;;;;0.00;0.00;;;;;;;16.70;74.37;100206.34;6236277;22;20333;-75
2023/05/05 09:32:04;;;;;;;0.00;0.00;;;;;;;16.58;74.72;100201.38;6212536;23;20336;-75
2023/05/05 09:34:31;;;;;;;0.00;0.00;;;;;;;16.53;74.95;100199.56;6208301;23;20012;-77
2023/05/05 09:36:57;;;;;;;0.00;0.00;;;;;;;16.82;74.70;100197.50;6238599;23;20093;-75
2023/05/05 09:39:52;;;;;;;0.00;0.00;;;;;;;16.73;73.43;100178.09;6206704;23;20078;-76
2023/05/05 09:42:18;;;;;;;0.00;0.00;;;;;;;16.81;73.48;100193.13;6237092;23;20423;-75
2023/05/05 09:44:43;;;;;;;0.00;0.00;;;;;;;16.69;73.63;100190.91;6210438;23;20008;-78
2023/05/05 09:47:09;;;;;;;0.00;0.00;;;;;;;17.30;73.12;100193.28;6236721;23;20039;-76
2023/05/05 09:49:37;;;;;;;0.00;0.00;;;;;;;17.92;70.03;100198.78;6237092;22;20416;-77
2023/05/05 09:52:14;;;;;;;0.00;0.00;;;;;;;18.53;66.79;100184.22;6239201;23;20000;-77
2023/05/05 09:54:51;;;;;;;;;;;;;;;;;;;;;
2023/05/05 09:57:30;;;;;;;0.00;0.00;;;;;;;21.17;59.92;100195.66;6239204;22;20515;-77
2023/05/05 10:00:00;;;;;;;0.00;0.00;;;;;;;21.43;56.14;100193.38;6230322;23;20070;-77
2023/05/05 10:02:33;;;;;;;0.00;0.00;;;;;;;20.69;56.98;100204.28;6209973;23;20066;-78
2023/05/05 10:05:11;;;;;;;0.00;0.00;;;;;;;21.65;54.29;100194.16;6214668;23;20016;-78
2023/05/05 10:07:38;;;;;;;0.00;0.00;;;;;;;22.07;52.58;100188.34;6235353;22;21202;-77
2023/05/05 10:10:16;;;;;;;0.00;0.00;;;;;;;22.28;53.19;100198.50;6237636;23;20005;-78
2023/05/05 10:12:42;;;;;;;0.00;0.00;;;;;;;23.70;49.66;100193.72;6238185;23;20091;-78
2023/05/05 10:15:12;;;;;;;0.00;0.00;;;;;;;25.80;45.52;100196.84;6188220;23;20012;-77
2023/05/05 10:17:48;;;;;;;0.00;0.00;;;;;;;23.86;45.62;100194.56;6211502;23;20003;-76
2023/05/05 10:20:14;;;;;;;0.00;0.00;;;;;;;23.41;48.23;100183.81;6237975;23;20011;-77
2023/05/05 10:22:51;;;;;;;0.00;0.00;;;;;;;25.64;45.53;100196.19;6232753;23;20004;-78
2023/05/05 10:25:29;;;;;;;0.00;0.00;;;;;;;25.89;41.66;100189.00;6241100;22;20000;-76
2023/05/05 10:28:08;;;;;;;0.00;0.00;;;;;;;23.33;45.68;100191.19;6234328;23;20728;-78
2023/05/05 10:30:40;;;;;;;0.00;0.00;;;;;;;22.57;49.64;100193.84;6238490;22;20729;-78
2023/05/05 10:33:18;;;;;;;0.00;0.00;;;;;;;25.35;44.50;100190.09;6232829;23;20019;-77
2023/05/05 10:35:48;;;;;;;0.00;0.00;;;;;;;25.54;43.42;100192.03;6238432;22;20007;-77
2023/05/05 10:38:16;;;;;;;0.00;0.00;;;;;;;28.31;37.67;100212.13;6235435;23;20493;-77
2023/05/05 10:40:45;;;;;;;0.00;0.00;;;;;;;27.36;39.69;100180.09;6237999;23;20008;-77
2023/05/05 10:43:13;;;;;;;0.00;0.00;;;;;;;28.60;36.83;100175.72;6208303;23;20150;-78
2023/05/05 10:45:40;;;;;;;0.00;0.00;;;;;;;30.72;33.47;100200.34;6236604;23;20008;-77
2023/05/05 10:48:13;;;;;;;0.00;0.00;;;;;;;31.38;31.35;100176.19;6233771;23;20008;-77
2023/05/05 10:50:48;;;;;;;0.00;0.00;;;;;;;29.38;33.17;100171.56;6237082;23;20026;-77
2023/05/05 10:53:24;;;;;;;0.00;0.00;;;;;;;25.67;38.34;100170.25;6232997;23;20016;-76
2023/05/05 10:55:52;;;;;;;0.00;0.00;;;;;;;23.50;43.03;100174.09;6241213;23;20039;-77
2023/05/05 10:58:32;;;;;;;0.00;0.00;;;;;;;22.64;45.85;100155.03;6231745;23;20031;-76
2023/05/05 11:00:58;;;;;;;0.00;0.00;;;;;;;25.73;42.67;100172.34;6243634;22;20522;-77
2023/05/05 11:03:23;;;;;;;0.00;0.00;;;;;;;26.29;39.53;100172.81;6211705;23;20035;-77
2023/05/05 11:06:06;;;;;;;0.00;0.00;;;;;;;24.59;42.86;100191.44;6237573;23;20027;-77
2023/05/05 11:08:41;;;;;;;0.00;0.00;;;;;;;23.93;44.08;100184.72;6240214;22;20011;-77
2023/05/05 11:11:09;;;;;;;0.00;0.00;;;;;;;21.96;49.25;100173.25;6238289;23;20000;-77
2023/05/05 11:13:37;;;;;;;0.00;0.00;;;;;;;20.38;61.50;100171.34;6238216;23;20000;-77
2023/05/05 11:16:04;;;;;;;0.00;0.00;;;;;;;20.56;67.00;100161.72;6189097;23;20375;-77
2023/05/05 11:18:36;;;;;;;0.00;0.00;;;;;;;21.95;67.19;100172.47;6238609;23;20057;-76
2023/05/05 11:21:06;;;;;;;0.00;0.00;;;;;;;24.42;57.78;100158.28;6238081;22;20091;-76
2023/05/05 11:23:32;;;;;;;0.00;0.00;;;;;;;24.29;56.81;100152.81;6240767;23;20016;-76
2023/05/05 11:25:57;;;;;;;0.00;0.00;;;;;;;27.32;52.64;100164.00;6236168;23;20011;-78
2023/05/05 11:28:28;;;;;;;0.00;0.00;;;;;;;27.47;48.22;100156.53;6238485;23;20009;-77
2023/05/05 11:30:54;;;;;;;0.00;0.00;;;;;;;25.00;47.65;100157.44;6234980;23;20020;-76
2023/05/05 11:33:29;;;;;;;0.00;0.00;;;;;;;23.54;50.21;100165.81;6237306;22;20087;-77